Time;durP1;ratioP1;P1;durP2;ratioP2;P2;SDS_P1;SDS_P2;PMS_P1;PMS_P2;Temp;Humidity;BMP_temperature;BMP_pressure;BME280_temperature;BME280_humidity;BME280_pressure;Samples;Min_cycle;Max_cycle;Signal;HPM_P1;HPM_P2
2023/03/26 00:17:45;;;;;;;1.50;1.40;;;;;;;9.05;84.27;99073.48;181404;1259;44001;-86
2023/03/26 00:22:09;;;;;;;1.70;0.90;;;;;;;8.94;84.70;99076.80;180543;1260;44174;-89
2023/03/26 00:30:49;;;;;;;3.10;1.10;;;;;;;8.89;85.59;99071.00;179286;1261;44281;-92
2023/03/26 00:39:38;;;;;;;2.70;1.10;;;;;;;8.70;85.77;99076.49;148376;1261;44585;-87
2023/03/26 00:43:41;;;;;;;1.00;0.40;;;;;;;8.54;86.28;99075.13;180869;1263;43852;-90
2023/03/26 00:47:45;;;;;;;1.20;0.90;;;;;;;8.55;86.68;99074.03;181045;1261;59456;-89
2023/03/26 00:51:48;;;;;;;8.90;1.10;;;;;;;8.67;87.15;99072.22;180970;1260;44063;-89
2023/03/26 00:55:51;;;;;;;3.10;1.40;;;;;;;8.80;86.61;99070.62;181115;1260;44039;-90
2023/03/26 00:59:55;;;;;;;4.30;1.30;;;;;;;9.01;86.19;99063.17;180963;1260;44342;-89
2023/03/26 01:04:26;;;;;;;2.30;1.80;;;;;;;9.16;86.25;99059.17;180831;1261;44009;-89
2023/03/26 01:08:34;;;;;;;4.50;1.30;;;;;;;9.30;85.84;99050.23;181183;1260;57958;-90
2023/03/26 01:12:38;;;;;;;3.70;1.70;;;;;;;9.37;85.99;99055.38;180964;1260;43774;-89
2023/03/26 01:16:54;;;;;;;2.20;1.00;;;;;;;9.46;85.52;99053.27;180948;1260;43796;-89
2023/03/26 01:21:03;;;;;;;6.90;2.30;;;;;;;9.61;85.54;99055.90;181006;1260;43825;-89
2023/03/26 01:25:08;;;;;;;1.00;0.90;;;;;;;9.73;84.90;99058.85;181056;1260;44078;-89
2023/03/26 01:29:20;;;;;;;1.90;1.20;;;;;;;9.80;83.99;99059.93;180986;1260;60361;-89
2023/03/26 01:33:36;;;;;;;1.90;1.30;;;;;;;9.78;83.46;99065.63;180948;1260;43884;-89
2023/03/26 01:37:46;;;;;;;5.10;1.50;;;;;;;9.82;83.68;99068.95;180935;1260;44063;-88
2023/03/26 01:41:57;;;;;;;1.30;1.10;;;;;;;9.90;82.70;99062.70;181031;1260;43926;-89
2023/03/26 01:46:05;;;;;;;6.10;1.20;;;;;;;9.98;82.73;99061.31;180907;1260;46421;-89
2023/03/26 01:50:11;;;;;;;3.60;1.30;;;;;;;9.98;82.67;99061.91;181042;1260;59287;-90
2023/03/26 01:54:20;;;;;;;1.90;1.20;;;;;;;9.94;82.80;99059.08;181063;1260;51449;-89
2023/03/26 01:58:39;;;;;;;12.40;1.70;;;;;;;9.91;83.89;99063.16;180977;1261;44404;-90
2023/03/26 02:02:53;;;;;;;0.70;0.70;;;;;;;9.90;84.32;99065.38;181048;1260;43830;-90
2023/03/26 02:07:27;;;;;;;5.20;2.20;;;;;;;9.86;84.63;99065.02;181050;1260;44000;-90
2023/03/26 02:11:31;;;;;;;3.80;1.30;;;;;;;9.94;84.75;99066.02;181090;1260;59589;-89
2023/03/26 02:15:53;;;;;;;3.60;1.30;;;;;;;9.97;85.17;99056.33;181016;1260;44380;-88
2023/03/26 02:19:57;;;;;;;5.40;0.90;;;;;;;9.99;85.89;99057.86;181031;1260;48288;-89
2023/03/26 02:24:03;;;;;;;2.30;1.00;;;;;;;10.00;86.04;99054.62;181134;1260;43986;-89
2023/03/26 02:28:07;;;;;;;2.00;0.90;;;;;;;9.98;86.88;99057.79;180996;1260;43986;-89
2023/03/26 02:32:13;;;;;;;2.20;1.10;;;;;;;9.95;85.98;99046.94;180997;1260;58468;-90
2023/03/26 02:36:23;;;;;;;1.30;0.80;;;;;;;9.96;86.23;99050.40;181019;1260;44183;-90
2023/03/26 02:40:26;;;;;;;4.60;1.80;;;;;;;9.91;86.24;99053.23;181039;1260;44172;-90
2023/03/26 02:44:30;;;;;;;4.30;1.40;;;;;;;9.89;86.14;99051.92;181085;1260;44044;-90
2023/03/26 02:48:34;;;;;;;5.40;2.00;;;;;;;9.89;86.32;99045.02;181111;1260;44093;-90
2023/03/26 02:52:38;;;;;;;3.80;2.50;;;;;;;9.84;87.59;99044.62;181072;1260;59237;-90
2023/03/26 02:56:41;;;;;;;1.30;1.00;;;;;;;9.73;90.52;99057.61;181238;1260;43780;-90
2023/03/26 03:00:46;;;;;;;5.10;2.20;;;;;;;9.50;93.16;99063.17;181116;1259;43945;-90
2023/03/26 03:04:50;;;;;;;3.70;2.20;;;;;;;9.43;95.82;99058.73;181230;1259;43914;-90
2023/03/26 03:08:54;;;;;;;4.40;2.90;;;;;;;9.37;92.49;99050.13;181073;1261;43964;-90
2023/03/26 03:12:58;;;;;;;2.90;1.70;;;;;;;9.42;94.96;99048.40;181113;1259;57783;-89
2023/03/26 03:17:01;;;;;;;3.50;2.70;;;;;;;9.43;91.88;99047.16;181117;1261;43985;-90
2023/03/26 03:21:05;;;;;;;3.50;1.10;;;;;;;9.47;90.95;99044.11;181084;1259;43843;-90
2023/03/26 03:25:16;;;;;;;2.20;1.30;;;;;;;9.54;89.31;99049.30;181156;1260;43931;-90
2023/03/26 03:29:20;;;;;;;3.70;1.80;;;;;;;9.59;87.50;99049.71;181188;1260;43696;-90
2023/03/26 03:33:27;;;;;;;3.50;1.30;;;;;;;9.68;86.40;99044.42;181186;1260;59603;-90
2023/03/26 03:37:33;;;;;;;1.70;0.60;;;;;;;9.62;83.92;99046.25;181200;1260;44152;-90
2023/03/26 03:41:41;;;;;;;2.00;1.10;;;;;;;9.64;83.50;99046.05;181132;1261;43756;-90
2023/03/26 03:50:12;;;;;;;3.00;1.10;;;;;;;9.67;84.55;99059.75;181200;1260;43806;-91
2023/03/26 03:54:18;;;;;;;2.10;1.40;;;;;;;9.69;84.33;99064.54;181218;1260;59808;-90
2023/03/26 03:58:26;;;;;;;3.10;1.20;;;;;;;9.71;84.79;99070.21;181159;1260;43742;-90
2023/03/26 04:02:33;;;;;;;1.90;1.20;;;;;;;9.66;84.96;99068.87;181101;1260;43785;-89
2023/03/26 04:06:37;;;;;;;0.50;0.50;;;;;;;9.59;85.43;99075.39;181009;1260;43863;-89
2023/03/26 04:10:42;;;;;;;2.90;0.50;;;;;;;9.54;86.17;99077.46;181010;1260;44955;-89
2023/03/26 04:14:46;;;;;;;2.30;1.00;;;;;;;9.44;87.44;99082.27;181101;1260;59684;-89
2023/03/26 04:18:50;;;;;;;1.70;1.10;;;;;;;9.41;88.15;99093.04;181068;1260;43898;-90
2023/03/26 04:22:56;;;;;;;1.70;0.90;;;;;;;9.29;89.56;99092.34;181098;1260;44114;-89
2023/03/26 04:27:01;;;;;;;1.40;1.20;;;;;;;9.14;91.32;99091.65;181025;1260;44199;-89
2023/03/26 04:31:05;;;;;;;3.80;0.70;;;;;;;9.09;91.73;99090.89;180998;1261;43765;-90
2023/03/26 04:35:13;;;;;;;2.60;0.70;;;;;;;9.05;91.25;99090.77;181087;1260;59246;-89
2023/03/26 04:39:18;;;;;;;2.30;1.00;;;;;;;9.07;91.43;99090.44;181087;1260;44331;-91
2023/03/26 04:43:21;;;;;;;1.60;0.70;;;;;;;9.04;91.25;99094.41;181070;1260;43913;-90
2023/03/26 04:47:25;;;;;;;1.00;0.80;;;;;;;9.07;91.40;99091.54;181182;1260;44066;-90
2023/03/26 04:51:37;;;;;;;2.30;0.40;;;;;;;9.03;91.00;99087.92;181036;1260;47838;-91
2023/03/26 04:55:54;;;;;;;0.70;0.50;;;;;;;9.06;91.16;99088.70;181025;1260;60695;-90
2023/03/26 04:59:58;;;;;;;4.10;0.80;;;;;;;9.04;91.01;99089.14;181039;1260;44249;-90
2023/03/26 05:04:03;;;;;;;4.20;1.60;;;;;;;9.08;91.75;99085.94;180937;1260;49816;-90
2023/03/26 05:08:07;;;;;;;2.80;0.60;;;;;;;9.08;91.79;99082.72;181091;1260;44169;-90
2023/03/26 05:12:11;;;;;;;1.40;0.80;;;;;;;9.13;92.24;99079.96;181061;1260;43902;-90
2023/03/26 05:16:14;;;;;;;1.60;0.90;;;;;;;9.21;91.90;99082.86;181054;1260;59625;-90
2023/03/26 05:20:21;;;;;;;1.20;1.10;;;;;;;9.28;91.57;99082.02;181150;1260;43768;-91
2023/03/26 05:24:27;;;;;;;2.90;1.10;;;;;;;9.37;91.70;99084.73;181119;1260;43771;-90
2023/03/26 05:28:30;;;;;;;1.20;1.00;;;;;;;9.46;91.42;99087.45;181085;1260;43810;-90
2023/03/26 05:32:35;;;;;;;1.40;0.90;;;;;;;9.59;90.98;99087.58;181099;1260;43808;-89
2023/03/26 05:36:39;;;;;;;2.70;0.90;;;;;;;9.62;90.81;99091.05;180915;1260;60559;-89
2023/03/26 05:40:43;;;;;;;2.50;1.30;;;;;;;9.68;91.01;99085.52;181044;1260;44120;-89
2023/03/26 05:44:46;;;;;;;2.10;1.30;;;;;;;9.65;90.15;99081.31;181039;1260;43925;-89
2023/03/26 05:48:50;;;;;;;2.20;1.50;;;;;;;9.72;89.77;99085.33;180960;1260;43923;-90
2023/03/26 05:52:55;;;;;;;2.60;1.20;;;;;;;9.75;89.01;99086.92;180993;1260;43701;-89
2023/03/26 05:56:59;;;;;;;1.70;1.20;;;;;;;9.90;89.40;99092.89;181035;1260;58349;-88
2023/03/26 06:01:15;;;;;;;2.40;1.60;;;;;;;9.92;89.16;99095.22;180810;1260;44073;-89
2023/03/26 06:05:19;;;;;;;2.90;0.80;;;;;;;9.94;89.56;99096.77;181147;1261;43854;-89
2023/03/26 06:09:22;;;;;;;2.00;1.60;;;;;;;9.98;89.01;99100.52;180905;1260;44446;-88
2023/03/26 06:13:26;;;;;;;5.20;1.70;;;;;;;10.04;89.29;99106.75;181013;1260;44115;-89
2023/03/26 06:17:29;;;;;;;2.70;0.80;;;;;;;10.15;89.27;99105.06;180924;1260;59628;-89
2023/03/26 06:21:33;;;;;;;2.00;1.40;;;;;;;10.16;88.30;99109.48;181052;1260;44117;-89
2023/03/26 06:25:37;;;;;;;4.00;1.80;;;;;;;10.20;86.94;99108.60;181105;1260;43793;-90
2023/03/26 06:29:40;;;;;;;2.30;1.60;;;;;;;10.29;86.98;99114.42;181200;1260;46193;-90
2023/03/26 06:33:45;;;;;;;8.00;1.10;;;;;;;10.26;88.10;99114.73;181114;1260;44032;-90
2023/03/26 06:37:49;;;;;;;2.60;1.30;;;;;;;10.07;89.91;99109.48;181001;1261;60665;-90
2023/03/26 06:41:52;;;;;;;3.10;1.60;;;;;;;9.81;94.03;99111.88;181099;1260;44143;-90
2023/03/26 06:45:56;;;;;;;6.20;2.30;;;;;;;9.59;95.74;99114.33;181062;1260;43855;-90
2023/03/26 06:49:59;;;;;;;3.70;1.40;;;;;;;9.59;98.04;99114.98;181087;1260;44071;-89
2023/03/26 06:54:03;;;;;;;3.40;1.80;;;;;;;9.76;98.71;99115.37;180971;1260;44039;-89
2023/03/26 06:58:11;;;;;;;1.30;0.80;;;;;;;9.92;94.78;99113.84;180814;1261;58834;-90
2023/03/26 07:02:14;;;;;;;1.80;1.70;;;;;;;10.17;92.64;99115.25;180949;1261;43864;-89
2023/03/26 07:06:18;;;;;;;6.80;1.60;;;;;;;10.43;90.32;99107.97;180892;1261;44062;-89
2023/03/26 07:10:21;;;;;;;5.20;1.00;;;;;;;10.71;89.84;99109.64;180961;1261;44117;-89
2023/03/26 07:14:26;;;;;;;2.30;1.10;;;;;;;10.85;88.32;99115.25;180989;1260;43997;-89
2023/03/26 07:18:30;;;;;;;2.00;1.40;;;;;;;10.98;88.01;99118.13;181066;1260;58320;-89
2023/03/26 07:22:35;;;;;;;1.90;0.80;;;;;;;10.96;86.30;99117.17;180973;1261;44114;-89
2023/03/26 07:27:16;;;;;;;0.80;0.60;;;;;;;10.82;85.55;99118.05;180883;1261;44059;-89
2023/03/26 07:31:26;;;;;;;2.60;1.50;;;;;;;10.76;86.68;99118.21;180877;1261;44143;-89
2023/03/26 07:36:00;;;;;;;2.50;1.10;;;;;;;10.68;87.89;99114.67;181041;1260;44451;-88
2023/03/26 07:53:13;;;;;;;1.70;1.00;;;;;;;10.59;91.00;99103.00;181122;1257;44113;-87
2023/03/26 08:11:31;;;;;;;;;;;;;;;11.78;83.41;99076.67;181440;1261;44190;-90
2023/03/26 08:16:27;;;;;;;2.20;0.80;;;;;;;11.87;83.30;99075.32;181123;1260;44238;-88
2023/03/26 08:20:57;;;;;;;2.90;1.30;;;;;;;11.84;82.79;99072.05;181177;1255;44044;-90
2023/03/26 08:54:37;;;;;;;2.50;0.90;;;;;;;10.35;89.32;99100.77;181203;1259;44148;-89
2023/03/26 09:23:29;;;;;;;7.90;1.20;;;;;;;12.07;79.59;99058.84;181141;1255;44828;-88
2023/03/26 09:33:08;;;;;;;3.30;1.90;;;;;;;12.72;77.75;99046.49;167804;1256;5004869;31
2023/03/26 10:07:10;;;;;;;4.60;3.70;;;;;;;12.17;83.03;99060.77;181461;1252;44774;31
2023/03/26 10:16:57;;;;;;;3.40;1.90;;;;;;;12.00;82.22;99051.64;181475;1252;45962;31
2023/03/26 10:41:09;;;;;;;7.00;2.10;;;;;;;12.63;79.24;99023.34;180085;1257;44271;-89
2023/03/26 11:23:09;;;;;;;3.10;1.50;;;;;;;11.59;78.01;99021.92;175900;1256;43891;-89
2023/03/26 11:57:25;;;;;;;2.70;1.00;;;;;;;12.86;73.85;98970.56;181594;1252;44287;31
2023/03/26 12:06:27;;;;;;;1.00;0.90;;;;;;;13.07;67.90;98952.73;179075;1254;45300;-89
2023/03/26 12:25:25;;;;;;;3.20;1.20;;;;;;;13.62;70.03;98938.52;171668;1252;59157;-89
2023/03/26 12:34:45;;;;;;;1.70;1.20;;;;;;;14.15;65.79;98919.31;144380;1261;44441;-90
2023/03/26 12:38:49;;;;;;;2.40;1.10;;;;;;;14.17;67.18;98914.48;181061;1259;43825;-89
2023/03/26 12:43:30;;;;;;;2.00;0.90;;;;;;;14.12;65.39;98915.23;181218;1259;44069;-89
2023/03/26 12:47:56;;;;;;;3.30;1.90;;;;;;;14.06;66.54;98915.79;181123;1259;59552;-90
2023/03/26 12:52:12;;;;;;;1.20;1.10;;;;;;;14.03;65.69;98912.02;181139;1259;51995;-90
2023/03/26 12:56:38;;;;;;;2.60;1.20;;;;;;;14.10;65.14;98917.09;181265;1259;44347;-90
2023/03/26 13:01:07;;;;;;;3.20;1.80;;;;;;;14.11;67.24;98913.81;181215;1259;44073;-89
2023/03/26 13:05:30;;;;;;;4.60;2.30;;;;;;;14.16;66.74;98909.63;181161;1259;44038;-90
2023/03/26 13:09:57;;;;;;;3.40;1.70;;;;;;;14.22;65.90;98908.79;181296;1259;59515;-90
2023/03/26 13:14:12;;;;;;;2.40;1.30;;;;;;;14.10;65.23;98903.02;181206;1259;43820;-90
2023/03/26 13:18:38;;;;;;;2.20;1.40;;;;;;;14.26;66.96;98901.82;181200;1259;43743;-89
2023/03/26 13:22:51;;;;;;;1.80;1.50;;;;;;;14.62;65.33;98901.89;180716;1264;44079;-90
2023/03/26 13:31:53;;;;;;;4.10;1.60;;;;;;;14.44;64.12;98896.83;178832;1260;59288;-90
2023/03/26 13:36:14;;;;;;;2.00;1.20;;;;;;;14.32;64.57;98899.14;181126;1260;44088;-90
2023/03/26 13:41:08;;;;;;;1.00;0.80;;;;;;;14.17;66.08;98904.17;181128;1260;43853;-89
2023/03/26 13:45:33;;;;;;;4.20;1.50;;;;;;;14.01;66.51;98908.66;181079;1260;44104;-89
2023/03/26 13:49:42;;;;;;;3.90;2.10;;;;;;;13.87;67.73;98901.46;181076;1260;44050;-91
2023/03/26 13:54:10;;;;;;;2.60;2.10;;;;;;;13.83;68.58;98898.63;180983;1260;59248;-90
2023/03/26 13:58:32;;;;;;;1.80;0.90;;;;;;;13.89;68.14;98896.73;181083;1260;43846;-91
2023/03/26 14:02:52;;;;;;;1.20;1.00;;;;;;;14.03;67.26;98890.27;181094;1260;44295;-88
2023/03/26 14:07:22;;;;;;;0.60;0.60;;;;;;;14.18;65.19;98882.73;181016;1260;44166;-89
2023/03/26 14:20:58;;;;;;;1.50;1.20;;;;;;;14.01;67.09;98875.24;178833;1256;44293;-90
2023/03/26 14:25:55;;;;;;;2.40;1.30;;;;;;;14.15;67.80;98868.52;158910;1256;44557;-90
2023/03/26 14:30:33;;;;;;;1.50;1.00;;;;;;;14.22;65.76;98864.36;181293;1259;44314;-91
2023/03/26 14:35:05;;;;;;;2.50;1.50;;;;;;;14.15;67.10;98861.55;181305;1259;44051;-91
2023/03/26 14:39:45;;;;;;;3.30;1.20;;;;;;;14.07;66.92;98859.67;181167;1259;58129;-90
2023/03/26 14:44:13;;;;;;;1.60;1.30;;;;;;;14.05;68.19;98857.25;181133;1259;51653;-89
2023/03/26 14:48:33;;;;;;;3.40;1.50;;;;;;;14.14;69.42;98859.56;181140;1259;44074;-89
2023/03/26 14:52:47;;;;;;;1.80;1.30;;;;;;;14.09;68.92;98860.92;180926;1259;44109;-88
2023/03/26 14:57:13;;;;;;;2.20;1.70;;;;;;;13.97;68.77;98858.05;180946;1259;44201;-88
2023/03/26 15:01:21;;;;;;;1.30;1.00;;;;;;;13.93;68.25;98859.59;181151;1259;58401;-87
2023/03/26 15:05:25;;;;;;;2.10;1.90;;;;;;;13.92;69.69;98853.10;180958;1259;43989;-86
2023/03/26 15:09:49;;;;;;;2.00;1.80;;;;;;;13.95;69.75;98847.23;181051;1258;43720;-87
2023/03/26 15:14:11;;;;;;;1.60;1.00;;;;;;;13.83;68.79;98849.36;181071;1258;44052;-88
2023/03/26 15:18:40;;;;;;;3.10;0.80;;;;;;;13.60;69.18;98851.55;181056;1259;44094;-87
2023/03/26 15:23:04;;;;;;;0.70;0.70;;;;;;;13.39;70.21;98849.67;181027;1259;60286;-88
2023/03/26 15:27:27;;;;;;;1.70;1.20;;;;;;;13.20;71.24;98848.80;180953;1259;44231;-88
2023/03/26 15:31:55;;;;;;;0.70;0.50;;;;;;;13.06;70.92;98847.56;181048;1259;44143;-89
2023/03/26 15:36:07;;;;;;;1.30;0.90;;;;;;;13.01;71.46;98845.88;180990;1258;44105;-88
2023/03/26 15:40:37;;;;;;;0.90;0.70;;;;;;;12.98;72.73;98846.68;181080;1259;44145;-90
2023/03/26 15:44:49;;;;;;;1.10;0.90;;;;;;;12.94;72.12;98840.73;181071;1258;59211;-89
2023/03/26 15:49:15;;;;;;;2.90;1.60;;;;;;;12.91;72.35;98830.95;181192;1259;44126;-89
2023/03/26 15:53:40;;;;;;;2.90;2.00;;;;;;;12.88;72.88;98833.52;181027;1259;43816;-90
2023/03/26 15:57:49;;;;;;;3.20;2.40;;;;;;;12.89;73.14;98832.44;181141;1261;44271;-90
2023/03/26 16:02:10;;;;;;;7.20;3.80;;;;;;;12.89;73.53;98830.79;181008;1259;43855;-88
2023/03/26 16:06:40;;;;;;;6.40;4.20;;;;;;;12.89;73.65;98830.75;181052;1259;59591;-89
2023/03/26 16:10:58;;;;;;;4.00;3.30;;;;;;;12.89;74.94;98828.13;181115;1259;44143;-89
2023/03/26 16:15:06;;;;;;;4.70;2.00;;;;;;;12.84;75.21;98824.41;181006;1259;43898;-90
2023/03/26 16:19:18;;;;;;;5.10;2.30;;;;;;;12.81;75.57;98819.11;181147;1258;43901;-90
2023/03/26 16:23:31;;;;;;;2.40;1.80;;;;;;;12.77;75.13;98814.85;181141;1259;44118;-89
2023/03/26 16:27:34;;;;;;;4.50;2.60;;;;;;;12.73;75.28;98811.96;181104;1258;58326;-89
2023/03/26 16:32:15;;;;;;;2.40;1.50;;;;;;;12.65;75.67;98813.91;181021;1259;44064;-89
2023/03/26 16:36:40;;;;;;;6.10;2.50;;;;;;;12.55;76.12;98814.38;181126;1259;44270;-89
2023/03/26 16:40:58;;;;;;;2.40;1.70;;;;;;;12.48;76.43;98812.84;181108;1259;44139;-89
2023/03/26 16:45:16;;;;;;;3.90;2.90;;;;;;;12.43;76.16;98818.90;180975;1259;43913;-89
2023/03/26 16:49:33;;;;;;;4.10;2.40;;;;;;;12.30;75.99;98818.02;181112;1259;58007;-89
2023/03/26 16:54:08;;;;;;;4.00;3.00;;;;;;;12.25;76.15;98817.51;181200;1259;44068;-88
2023/03/26 16:58:26;;;;;;;5.00;3.50;;;;;;;12.22;76.35;98817.00;181078;1259;44174;-88
2023/03/26 17:02:48;;;;;;;16.30;7.40;;;;;;;12.19;76.78;98814.54;181183;1259;43999;-88
2023/03/26 17:07:12;;;;;;;9.50;7.00;;;;;;;12.18;76.95;98816.73;181041;1258;44005;-87
2023/03/26 17:11:55;;;;;;;8.50;6.80;;;;;;;12.19;76.84;98809.55;181099;1259;60246;-88
2023/03/26 17:16:18;;;;;;;6.90;5.10;;;;;;;12.17;76.92;98810.48;181090;1259;44096;-87
2023/03/26 17:20:49;;;;;;;10.90;5.60;;;;;;;12.12;77.59;98811.86;181116;1259;44140;-87
2023/03/26 17:25:36;;;;;;;5.00;3.80;;;;;;;12.00;79.52;98815.45;181045;1259;43855;-86
2023/03/26 17:29:48;;;;;;;4.80;3.90;;;;;;;11.86;79.87;98815.06;181210;1259;43883;-86
2023/03/26 17:33:52;;;;;;;9.90;8.30;;;;;;;11.80;80.54;98820.29;181157;1259;58582;-87
2023/03/26 17:37:56;;;;;;;17.50;12.50;;;;;;;11.73;81.06;98818.46;180944;1259;43820;-87
2023/03/26 17:42:29;;;;;;;17.60;11.90;;;;;;;11.65;81.57;98821.04;181126;1259;44358;-88
2023/03/26 17:46:40;;;;;;;26.10;15.50;;;;;;;11.58;82.55;98824.31;181011;1259;43937;-89
2023/03/26 17:50:59;;;;;;;23.70;14.10;;;;;;;11.50;83.36;98822.03;181070;1259;43874;-88
2023/03/26 17:55:03;;;;;;;20.50;13.80;;;;;;;11.48;83.56;98824.72;180988;1259;58337;-88
2023/03/26 17:59:25;;;;;;;21.80;13.20;;;;;;;11.43;83.79;98825.36;181123;1258;43907;-92
2023/03/26 18:03:34;;;;;;;23.10;15.10;;;;;;;11.41;83.71;98826.52;181224;1259;44284;-89
2023/03/26 18:08:01;;;;;;;26.50;14.90;;;;;;;11.37;83.67;98824.12;181119;1259;45907;-90
2023/03/26 18:36:05;;;;;;;3.40;2.80;;;;;;;10.76;83.52;98829.52;181312;1256;44073;-89
2023/03/26 18:40:44;;;;;;;6.80;4.40;;;;;;;10.54;86.33;98835.77;181230;1259;58562;-86
2023/03/26 18:44:49;;;;;;;8.50;4.20;;;;;;;10.48;89.45;98830.08;181213;1259;44231;-88
2023/03/26 18:48:54;;;;;;;4.10;3.10;;;;;;;10.32;91.41;98831.71;181192;1259;44016;-88
2023/03/26 18:53:00;;;;;;;5.30;2.70;;;;;;;10.18;93.81;98835.48;181055;1258;44223;-88
2023/03/26 18:57:18;;;;;;;6.00;2.40;;;;;;;10.03;95.51;98837.29;181154;1259;44322;-89
2023/03/26 19:01:30;;;;;;;2.10;1.80;;;;;;;10.00;95.50;98835.14;181301;1259;58181;-88
2023/03/26 19:05:35;;;;;;;2.00;1.80;;;;;;;9.87;95.76;98832.59;181295;1257;44210;-88
2023/03/26 19:09:40;;;;;;;1.80;1.70;;;;;;;9.74;96.76;98828.26;181121;1259;44771;-85
2023/03/26 19:13:57;;;;;;;3.10;1.80;;;;;;;9.67;98.11;98823.11;181064;1257;44251;-85
2023/03/26 19:18:08;;;;;;;2.60;2.10;;;;;;;9.55;99.57;98820.02;181140;1259;43842;-88
2023/03/26 19:22:12;;;;;;;3.10;2.20;;;;;;;9.44;100.00;98816.71;180993;1259;59247;-89
2023/03/26 19:26:17;;;;;;;4.70;2.70;;;;;;;9.41;100.00;98816.13;181250;1257;44200;-89
2023/03/26 19:30:31;;;;;;;3.70;2.20;;;;;;;9.39;100.00;98816.31;181116;1258;44041;-90
2023/03/26 19:34:40;;;;;;;4.30;2.70;;;;;;;9.35;100.00;98818.70;181218;1259;43999;-91
2023/03/26 19:38:47;;;;;;;3.40;2.20;;;;;;;9.35;100.00;98815.35;181224;1257;44054;-90
2023/03/26 19:42:52;;;;;;;3.00;1.90;;;;;;;9.39;100.00;98819.10;181141;1259;59140;-89
2023/03/26 19:47:06;;;;;;;7.60;3.10;;;;;;;9.44;100.00;98811.27;181092;1258;44071;-89
2023/03/26 19:51:20;;;;;;;7.00;3.30;;;;;;;9.49;100.00;98809.35;181207;1258;44177;-89
2023/03/26 19:55:25;;;;;;;3.40;1.90;;;;;;;9.52;100.00;98808.16;181164;1257;44190;-89
2023/03/26 19:59:29;;;;;;;4.00;2.70;;;;;;;9.50;100.00;98804.98;181242;1258;44101;-89
2023/03/26 20:03:40;;;;;;;4.70;3.10;;;;;;;9.45;100.00;98800.92;181285;1258;59281;-89
2023/03/26 20:07:54;;;;;;;5.50;2.90;;;;;;;9.50;100.00;98798.46;181346;1260;44198;-90
2023/03/26 20:11:59;;;;;;;2.30;2.10;;;;;;;9.53;100.00;98796.73;181508;1257;44294;-89
2023/03/26 20:16:14;;;;;;;4.40;2.40;;;;;;;9.59;100.00;98791.73;181113;1257;44130;-90
2023/03/26 20:20:39;;;;;;;3.40;2.40;;;;;;;9.60;100.00;98785.60;181198;1258;44204;-87
2023/03/26 20:24:44;;;;;;;2.60;2.30;;;;;;;9.67;100.00;98783.11;181297;1257;58050;-89
2023/03/26 20:28:51;;;;;;;3.10;1.90;;;;;;;9.68;99.88;98779.95;181295;1257;44340;-89
2023/03/26 20:32:55;;;;;;;3.70;2.70;;;;;;;9.60;99.94;98777.23;181113;1259;44172;-89
2023/03/26 20:37:16;;;;;;;3.30;3.00;;;;;;;9.36;100.00;98772.70;181293;1259;43870;-89
2023/03/26 20:41:21;;;;;;;6.80;3.90;;;;;;;9.21;100.00;98771.27;181468;1260;44018;-89
2023/03/26 20:45:25;;;;;;;5.50;4.90;;;;;;;9.04;100.00;98770.23;181101;1259;59227;-88
2023/03/26 20:49:31;;;;;;;5.30;4.60;;;;;;;8.90;100.00;98767.73;181257;1259;44151;-89
2023/03/26 20:53:34;;;;;;;8.80;5.30;;;;;;;8.77;100.00;98760.53;181357;1261;43902;-89
2023/03/26 20:57:37;;;;;;;8.80;5.80;;;;;;;8.68;100.00;98757.83;181258;1257;44107;-89
2023/03/26 21:01:41;;;;;;;8.70;5.60;;;;;;;8.65;100.00;98757.27;181283;1259;43881;-90
2023/03/26 21:05:47;;;;;;;14.50;7.70;;;;;;;8.70;100.00;98761.19;181304;1258;61125;-90
2023/03/26 21:09:51;;;;;;;13.70;6.40;;;;;;;8.67;100.00;98766.14;181242;1259;46427;-89
2023/03/26 21:14:18;;;;;;;12.70;7.40;;;;;;;8.66;100.00;98771.83;181278;1259;44118;-88
2023/03/26 21:18:21;;;;;;;12.20;6.90;;;;;;;8.59;100.00;98777.45;181338;1259;43818;-89
2023/03/26 22:23:41;;;;;;;16.50;8.40;;;;;;;8.50;100.00;98765.82;171429;1259;44875;-90
2023/03/26 23:01:20;;;;;;;6.90;5.30;;;;;;;8.28;100.00;98762.52;181200;1260;60613;-89
2023/03/26 23:18:52;;;;;;;11.20;6.70;;;;;;;8.44;100.00;98777.63;181385;1256;45765;-89
2023/03/26 23:32:17;;;;;;;11.40;7.20;;;;;;;8.66;100.00;98779.78;176677;1256;43894;-90
